sensor_id;sensor_type;location;lat;lon;timestamp;P1;durP1;ratioP1;P2;durP2;ratioP2
934;SDS011;454;53.254;10.400;2023-07-22T00:00:03;4.00;;;2.37;;
934;SDS011;454;53.254;10.400;2023-07-22T00:02:34;2.07;;;1.83;;
934;SDS011;454;53.254;10.400;2023-07-22T00:05:00;1.57;;;1.57;;
934;SDS011;454;53.254;10.400;2023-07-22T00:07:29;1.47;;;1.47;;
934;SDS011;454;53.254;10.400;2023-07-22T00:09:55;2.53;;;2.33;;
934;SDS011;454;53.254;10.400;2023-07-22T00:12:22;2.93;;;2.83;;
934;SDS011;454;53.254;10.400;2023-07-22T00:14:52;2.83;;;1.80;;
934;SDS011;454;53.254;10.400;2023-07-22T00:17:19;1.87;;;1.70;;
934;SDS011;454;53.254;10.400;2023-07-22T00:19:45;2.03;;;1.93;;
934;SDS011;454;53.254;10.400;2023-07-22T00:22:12;1.73;;;1.73;;
934;SDS011;454;53.254;10.400;2023-07-22T00:24:40;1.60;;;1.50;;
934;SDS011;454;53.254;10.400;2023-07-22T00:27:06;2.50;;;2.40;;
934;SDS011;454;53.254;10.400;2023-07-22T00:29:33;2.10;;;1.93;;
934;SDS011;454;53.254;10.400;2023-07-22T00:32:01;5.53;;;2.30;;
934;SDS011;454;53.254;10.400;2023-07-22T00:34:28;2.40;;;2.23;;
934;SDS011;454;53.254;10.400;2023-07-22T00:36:55;1.80;;;1.70;;
934;SDS011;454;53.254;10.400;2023-07-22T00:39:22;2.53;;;2.33;;
934;SDS011;454;53.254;10.400;2023-07-22T00:41:48;1.80;;;1.70;;
934;SDS011;454;53.254;10.400;2023-07-22T00:44:15;2.23;;;2.10;;
934;SDS011;454;53.254;10.400;2023-07-22T00:46:42;2.63;;;2.53;;
934;SDS011;454;53.254;10.400;2023-07-22T00:49:11;3.23;;;3.03;;
934;SDS011;454;53.254;10.400;2023-07-22T00:51:40;4.20;;;1.77;;
934;SDS011;454;53.254;10.400;2023-07-22T00:54:07;1.40;;;1.40;;
934;SDS011;454;53.254;10.400;2023-07-22T00:56:35;8.27;;;2.40;;
934;SDS011;454;53.254;10.400;2023-07-22T00:59:02;4.53;;;3.40;;
934;SDS011;454;53.254;10.400;2023-07-22T01:01:31;2.77;;;2.57;;
934;SDS011;454;53.254;10.400;2023-07-22T01:03:58;2.70;;;2.60;;
934;SDS011;454;53.254;10.400;2023-07-22T01:06:27;2.27;;;2.17;;
934;SDS011;454;53.254;10.400;2023-07-22T01:08:56;2.17;;;2.00;;
934;SDS011;454;53.254;10.400;2023-07-22T01:11:23;2.80;;;2.60;;
934;SDS011;454;53.254;10.400;2023-07-22T01:13:50;1.70;;;1.60;;
934;SDS011;454;53.254;10.400;2023-07-22T01:16:22;2.70;;;2.60;;
934;SDS011;454;53.254;10.400;2023-07-22T01:18:50;3.60;;;2.50;;
934;SDS011;454;53.254;10.400;2023-07-22T01:21:17;4.43;;;1.80;;
934;SDS011;454;53.254;10.400;2023-07-22T01:23:47;2.37;;;2.37;;
934;SDS011;454;53.254;10.400;2023-07-22T01:26:14;3.20;;;2.93;;
934;SDS011;454;53.254;10.400;2023-07-22T01:28:40;4.47;;;4.17;;
934;SDS011;454;53.254;10.400;2023-07-22T01:31:07;3.23;;;2.67;;
934;SDS011;454;53.254;10.400;2023-07-22T01:33:34;2.80;;;2.63;;
934;SDS011;454;53.254;10.400;2023-07-22T01:36:01;5.93;;;1.97;;
934;SDS011;454;53.254;10.400;2023-07-22T01:38:28;2.00;;;1.90;;
934;SDS011;454;53.254;10.400;2023-07-22T01:40:57;2.20;;;1.70;;
934;SDS011;454;53.254;10.400;2023-07-22T01:43:24;4.37;;;3.20;;
934;SDS011;454;53.254;10.400;2023-07-22T01:45:50;2.87;;;2.63;;
934;SDS011;454;53.254;10.400;2023-07-22T01:48:18;4.10;;;3.50;;
934;SDS011;454;53.254;10.400;2023-07-22T01:50:45;2.45;;;2.20;;
934;SDS011;454;53.254;10.400;2023-07-22T01:53:12;5.83;;;4.37;;
934;SDS011;454;53.254;10.400;2023-07-22T01:55:39;2.50;;;2.40;;
934;SDS011;454;53.254;10.400;2023-07-22T01:58:07;3.20;;;3.07;;
934;SDS011;454;53.254;10.400;2023-07-22T02:00:33;3.87;;;3.67;;
934;SDS011;454;53.254;10.400;2023-07-22T02:03:00;3.40;;;3.20;;
934;SDS011;454;53.254;10.400;2023-07-22T02:05:27;4.87;;;3.40;;
934;SDS011;454;53.254;10.400;2023-07-22T02:07:55;2.80;;;2.60;;
934;SDS011;454;53.254;10.400;2023-07-22T02:10:22;3.20;;;3.00;;
934;SDS011;454;53.254;10.400;2023-07-22T02:12:49;2.20;;;2.03;;
934;SDS011;454;53.254;10.400;2023-07-22T02:15:17;4.23;;;4.03;;
934;SDS011;454;53.254;10.400;2023-07-22T02:17:46;5.28;;;3.75;;
934;SDS011;454;53.254;10.400;2023-07-22T02:20:13;6.78;;;3.97;;
934;SDS011;454;53.254;10.400;2023-07-22T02:22:40;4.33;;;2.70;;
934;SDS011;454;53.254;10.400;2023-07-22T02:25:07;3.97;;;3.53;;
934;SDS011;454;53.254;10.400;2023-07-22T02:27:35;4.33;;;3.83;;
934;SDS011;454;53.254;10.400;2023-07-22T02:30:02;3.70;;;3.00;;
934;SDS011;454;53.254;10.400;2023-07-22T02:32:31;1.93;;;1.83;;
934;SDS011;454;53.254;10.400;2023-07-22T02:34:58;4.07;;;3.70;;
934;SDS011;454;53.254;10.400;2023-07-22T02:37:24;3.55;;;3.20;;
934;SDS011;454;53.254;10.400;2023-07-22T02:39:51;4.05;;;3.75;;
934;SDS011;454;53.254;10.400;2023-07-22T02:42:19;4.47;;;4.13;;
934;SDS011;454;53.254;10.400;2023-07-22T02:44:46;10.25;;;4.28;;
934;SDS011;454;53.254;10.400;2023-07-22T02:47:13;3.08;;;2.78;;
934;SDS011;454;53.254;10.400;2023-07-22T02:49:41;5.00;;;4.60;;
934;SDS011;454;53.254;10.400;2023-07-22T02:52:08;5.15;;;4.75;;
934;SDS011;454;53.254;10.400;2023-07-22T02:54:38;3.33;;;2.40;;
934;SDS011;454;53.254;10.400;2023-07-22T02:57:06;6.53;;;3.72;;
934;SDS011;454;53.254;10.400;2023-07-22T02:59:32;11.27;;;4.57;;
934;SDS011;454;53.254;10.400;2023-07-22T03:01:59;4.55;;;4.18;;
934;SDS011;454;53.254;10.400;2023-07-22T03:04:26;13.38;;;4.15;;
934;SDS011;454;53.254;10.400;2023-07-22T03:06:54;3.70;;;2.73;;
934;SDS011;454;53.254;10.400;2023-07-22T03:09:21;3.60;;;3.30;;
934;SDS011;454;53.254;10.400;2023-07-22T03:11:47;3.30;;;3.00;;
934;SDS011;454;53.254;10.400;2023-07-22T03:14:14;5.40;;;4.90;;
934;SDS011;454;53.254;10.400;2023-07-22T03:16:41;5.65;;;2.58;;
934;SDS011;454;53.254;10.400;2023-07-22T03:19:08;3.27;;;2.97;;
934;SDS011;454;53.254;10.400;2023-07-22T03:21:35;2.50;;;2.40;;
934;SDS011;454;53.254;10.400;2023-07-22T03:24:03;9.02;;;3.38;;
934;SDS011;454;53.254;10.400;2023-07-22T03:26:30;7.13;;;3.25;;
934;SDS011;454;53.254;10.400;2023-07-22T03:28:57;4.53;;;4.07;;
934;SDS011;454;53.254;10.400;2023-07-22T03:31:24;3.50;;;3.20;;
934;SDS011;454;53.254;10.400;2023-07-22T03:33:50;5.55;;;3.65;;
934;SDS011;454;53.254;10.400;2023-07-22T03:36:17;3.50;;;3.17;;
934;SDS011;454;53.254;10.400;2023-07-22T03:38:45;6.87;;;3.10;;
934;SDS011;454;53.254;10.400;2023-07-22T03:41:13;5.32;;;3.15;;
934;SDS011;454;53.254;10.400;2023-07-22T03:43:39;7.65;;;4.07;;
934;SDS011;454;53.254;10.400;2023-07-22T03:46:06;2.30;;;2.20;;
934;SDS011;454;53.254;10.400;2023-07-22T03:48:33;6.53;;;3.83;;
934;SDS011;454;53.254;10.400;2023-07-22T03:51:00;3.40;;;3.20;;
934;SDS011;454;53.254;10.400;2023-07-22T03:53:27;3.77;;;3.47;;
934;SDS011;454;53.254;10.400;2023-07-22T03:55:53;6.57;;;5.77;;
934;SDS011;454;53.254;10.400;2023-07-22T03:58:22;3.58;;;3.35;;
934;SDS011;454;53.254;10.400;2023-07-22T04:00:48;6.60;;;4.80;;
934;SDS011;454;53.254;10.400;2023-07-22T04:03:15;11.90;;;3.67;;
934;SDS011;454;53.254;10.400;2023-07-22T04:05:42;3.70;;;3.50;;
934;SDS011;454;53.254;10.400;2023-07-22T04:08:09;4.43;;;4.13;;
934;SDS011;454;53.254;10.400;2023-07-22T04:10:35;5.68;;;4.68;;
934;SDS011;454;53.254;10.400;2023-07-22T04:13:02;6.10;;;4.53;;
934;SDS011;454;53.254;10.400;2023-07-22T04:15:31;3.38;;;2.50;;
934;SDS011;454;53.254;10.400;2023-07-22T04:17:57;5.73;;;4.40;;
934;SDS011;454;53.254;10.400;2023-07-22T04:20:24;6.13;;;4.57;;
934;SDS011;454;53.254;10.400;2023-07-22T04:22:51;3.67;;;3.10;;
934;SDS011;454;53.254;10.400;2023-07-22T04:25:18;6.53;;;4.10;;
934;SDS011;454;53.254;10.400;2023-07-22T04:27:45;6.93;;;3.57;;
934;SDS011;454;53.254;10.400;2023-07-22T04:30:12;5.33;;;3.80;;
934;SDS011;454;53.254;10.400;2023-07-22T04:32:46;4.60;;;4.20;;
934;SDS011;454;53.254;10.400;2023-07-22T04:35:13;7.57;;;3.40;;
934;SDS011;454;53.254;10.400;2023-07-22T04:37:42;12.83;;;6.33;;
934;SDS011;454;53.254;10.400;2023-07-22T04:40:09;5.13;;;4.50;;
934;SDS011;454;53.254;10.400;2023-07-22T04:42:39;6.93;;;4.43;;
934;SDS011;454;53.254;10.400;2023-07-22T04:45:07;14.43;;;4.13;;
934;SDS011;454;53.254;10.400;2023-07-22T04:47:34;4.90;;;4.07;;
934;SDS011;454;53.254;10.400;2023-07-22T04:50:03;6.10;;;3.93;;
934;SDS011;454;53.254;10.400;2023-07-22T04:52:31;20.60;;;5.13;;
934;SDS011;454;53.254;10.400;2023-07-22T04:54:58;3.70;;;3.40;;
934;SDS011;454;53.254;10.400;2023-07-22T04:57:25;15.43;;;4.67;;
934;SDS011;454;53.254;10.400;2023-07-22T04:59:51;3.60;;;2.30;;
934;SDS011;454;53.254;10.400;2023-07-22T05:02:18;3.60;;;3.37;;
934;SDS011;454;53.254;10.400;2023-07-22T05:04:45;6.70;;;4.40;;
934;SDS011;454;53.254;10.400;2023-07-22T05:07:13;5.77;;;3.73;;
934;SDS011;454;53.254;10.400;2023-07-22T05:09:40;9.10;;;4.77;;
934;SDS011;454;53.254;10.400;2023-07-22T05:12:07;5.37;;;3.37;;
934;SDS011;454;53.254;10.400;2023-07-22T05:14:34;5.50;;;4.00;;
934;SDS011;454;53.254;10.400;2023-07-22T05:17:01;4.50;;;2.67;;
934;SDS011;454;53.254;10.400;2023-07-22T05:19:27;2.90;;;2.17;;
934;SDS011;454;53.254;10.400;2023-07-22T05:21:54;2.90;;;2.73;;
934;SDS011;454;53.254;10.400;2023-07-22T05:24:22;3.83;;;3.53;;
934;SDS011;454;53.254;10.400;2023-07-22T05:26:49;2.17;;;2.17;;
934;SDS011;454;53.254;10.400;2023-07-22T05:29:16;2.50;;;2.30;;
934;SDS011;454;53.254;10.400;2023-07-22T05:31:43;2.53;;;2.40;;
934;SDS011;454;53.254;10.400;2023-07-22T05:34:11;3.00;;;2.80;;
934;SDS011;454;53.254;10.400;2023-07-22T05:36:38;2.87;;;2.47;;
934;SDS011;454;53.254;10.400;2023-07-22T05:39:05;1.93;;;1.83;;
934;SDS011;454;53.254;10.400;2023-07-22T05:41:33;3.13;;;2.93;;
934;SDS011;454;53.254;10.400;2023-07-22T05:44:01;2.60;;;2.50;;
934;SDS011;454;53.254;10.400;2023-07-22T05:46:27;4.20;;;2.57;;
934;SDS011;454;53.254;10.400;2023-07-22T05:48:54;3.90;;;2.50;;
934;SDS011;454;53.254;10.400;2023-07-22T05:51:21;2.57;;;2.37;;
934;SDS011;454;53.254;10.400;2023-07-22T05:53:47;2.33;;;2.10;;
934;SDS011;454;53.254;10.400;2023-07-22T05:56:14;2.70;;;2.60;;
934;SDS011;454;53.254;10.400;2023-07-22T05:58:42;2.97;;;2.87;;
934;SDS011;454;53.254;10.400;2023-07-22T06:01:09;3.43;;;2.47;;
934;SDS011;454;53.254;10.400;2023-07-22T06:03:36;2.83;;;2.63;;
934;SDS011;454;53.254;10.400;2023-07-22T06:06:03;2.60;;;2.50;;
934;SDS011;454;53.254;10.400;2023-07-22T06:08:30;3.47;;;3.20;;
934;SDS011;454;53.254;10.400;2023-07-22T06:10:57;2.40;;;2.27;;
934;SDS011;454;53.254;10.400;2023-07-22T06:13:23;2.63;;;2.53;;
934;SDS011;454;53.254;10.400;2023-07-22T06:15:51;2.33;;;2.33;;
934;SDS011;454;53.254;10.400;2023-07-22T06:18:18;1.50;;;1.40;;
934;SDS011;454;53.254;10.400;2023-07-22T06:20:45;1.50;;;1.50;;
934;SDS011;454;53.254;10.400;2023-07-22T06:23:12;2.53;;;2.43;;
934;SDS011;454;53.254;10.400;2023-07-22T06:25:39;1.80;;;1.70;;
934;SDS011;454;53.254;10.400;2023-07-22T06:28:06;2.33;;;2.10;;
934;SDS011;454;53.254;10.400;2023-07-22T06:30:33;1.83;;;1.70;;
934;SDS011;454;53.254;10.400;2023-07-22T06:33:01;2.07;;;1.87;;
934;SDS011;454;53.254;10.400;2023-07-22T06:35:28;1.93;;;1.90;;
934;SDS011;454;53.254;10.400;2023-07-22T06:37:54;1.90;;;1.80;;
934;SDS011;454;53.254;10.400;2023-07-22T06:40:21;2.40;;;2.30;;
934;SDS011;454;53.254;10.400;2023-07-22T06:42:48;1.80;;;1.80;;
934;SDS011;454;53.254;10.400;2023-07-22T06:45:15;1.93;;;1.93;;
934;SDS011;454;53.254;10.400;2023-07-22T06:47:42;1.30;;;1.30;;
934;SDS011;454;53.254;10.400;2023-07-22T06:50:10;1.80;;;1.70;;
934;SDS011;454;53.254;10.400;2023-07-22T06:52:37;2.67;;;2.57;;
934;SDS011;454;53.254;10.400;2023-07-22T06:55:04;2.00;;;2.00;;
934;SDS011;454;53.254;10.400;2023-07-22T06:57:32;2.33;;;2.23;;
934;SDS011;454;53.254;10.400;2023-07-22T06:59:59;1.37;;;1.37;;
934;SDS011;454;53.254;10.400;2023-07-22T07:02:26;1.60;;;1.60;;
934;SDS011;454;53.254;10.400;2023-07-22T07:04:53;1.40;;;1.40;;
934;SDS011;454;53.254;10.400;2023-07-22T07:07:21;1.83;;;1.73;;
934;SDS011;454;53.254;10.400;2023-07-22T07:09:47;1.80;;;1.70;;
934;SDS011;454;53.254;10.400;2023-07-22T07:12:15;1.00;;;1.00;;
934;SDS011;454;53.254;10.400;2023-07-22T07:14:42;1.43;;;1.43;;
934;SDS011;454;53.254;10.400;2023-07-22T07:17:09;1.53;;;1.53;;
934;SDS011;454;53.254;10.400;2023-07-22T07:19:36;1.53;;;1.43;;
934;SDS011;454;53.254;10.400;2023-07-22T07:22:02;0.90;;;0.90;;
934;SDS011;454;53.254;10.400;2023-07-22T07:24:31;2.03;;;1.83;;
934;SDS011;454;53.254;10.400;2023-07-22T07:26:57;1.17;;;1.17;;
934;SDS011;454;53.254;10.400;2023-07-22T07:29:24;1.33;;;1.33;;
934;SDS011;454;53.254;10.400;2023-07-22T07:31:51;1.63;;;1.60;;
934;SDS011;454;53.254;10.400;2023-07-22T07:34:18;3.10;;;1.63;;
934;SDS011;454;53.254;10.400;2023-07-22T07:36:44;1.10;;;1.10;;
934;SDS011;454;53.254;10.400;2023-07-22T07:39:11;1.43;;;1.43;;
934;SDS011;454;53.254;10.400;2023-07-22T07:41:39;1.43;;;1.43;;
934;SDS011;454;53.254;10.400;2023-07-22T07:44:06;1.20;;;1.13;;
934;SDS011;454;53.254;10.400;2023-07-22T07:46:33;1.17;;;1.17;;
934;SDS011;454;53.254;10.400;2023-07-22T07:49:00;2.40;;;1.67;;
934;SDS011;454;53.254;10.400;2023-07-22T07:51:29;1.43;;;1.10;;
934;SDS011;454;53.254;10.400;2023-07-22T07:53:58;0.97;;;0.97;;
934;SDS011;454;53.254;10.400;2023-07-22T07:56:25;1.23;;;1.13;;
934;SDS011;454;53.254;10.400;2023-07-22T07:58:53;1.10;;;1.10;;
934;SDS011;454;53.254;10.400;2023-07-22T08:01:20;1.10;;;1.10;;
934;SDS011;454;53.254;10.400;2023-07-22T08:03:47;0.90;;;0.90;;
934;SDS011;454;53.254;10.400;2023-07-22T08:06:14;0.93;;;0.93;;
934;SDS011;454;53.254;10.400;2023-07-22T08:08:41;1.07;;;1.07;;
934;SDS011;454;53.254;10.400;2023-07-22T08:11:08;0.83;;;0.83;;
934;SDS011;454;53.254;10.400;2023-07-22T08:13:38;1.07;;;1.07;;
934;SDS011;454;53.254;10.400;2023-07-22T08:16:07;0.83;;;0.83;;
934;SDS011;454;53.254;10.400;2023-07-22T08:18:35;1.00;;;1.00;;
934;SDS011;454;53.254;10.400;2023-07-22T08:21:02;0.73;;;0.67;;
934;SDS011;454;53.254;10.400;2023-07-22T08:23:31;0.80;;;0.80;;
934;SDS011;454;53.254;10.400;2023-07-22T08:25:58;1.20;;;0.83;;
934;SDS011;454;53.254;10.400;2023-07-22T08:28:24;0.83;;;0.83;;
934;SDS011;454;53.254;10.400;2023-07-22T08:30:53;0.93;;;0.93;;
934;SDS011;454;53.254;10.400;2023-07-22T08:33:22;0.70;;;0.70;;
934;SDS011;454;53.254;10.400;2023-07-22T08:35:50;1.50;;;0.70;;
934;SDS011;454;53.254;10.400;2023-07-22T08:38:17;0.87;;;0.87;;
934;SDS011;454;53.254;10.400;2023-07-22T08:40:44;0.40;;;0.40;;
934;SDS011;454;53.254;10.400;2023-07-22T08:43:14;0.77;;;0.77;;
934;SDS011;454;53.254;10.400;2023-07-22T08:45:41;0.50;;;0.50;;
934;SDS011;454;53.254;10.400;2023-07-22T08:48:09;0.47;;;0.47;;
934;SDS011;454;53.254;10.400;2023-07-22T08:50:41;0.63;;;0.63;;
934;SDS011;454;53.254;10.400;2023-07-22T08:53:11;0.60;;;0.60;;
934;SDS011;454;53.254;10.400;2023-07-22T08:55:39;0.53;;;0.53;;
934;SDS011;454;53.254;10.400;2023-07-22T08:58:06;0.83;;;0.60;;
934;SDS011;454;53.254;10.400;2023-07-22T09:00:34;0.50;;;0.50;;
934;SDS011;454;53.254;10.400;2023-07-22T09:03:01;0.60;;;0.60;;
934;SDS011;454;53.254;10.400;2023-07-22T09:05:28;0.93;;;0.93;;
934;SDS011;454;53.254;10.400;2023-07-22T09:07:58;0.80;;;0.80;;
934;SDS011;454;53.254;10.400;2023-07-22T09:10:26;0.60;;;0.60;;
934;SDS011;454;53.254;10.400;2023-07-22T09:12:54;0.53;;;0.53;;
934;SDS011;454;53.254;10.400;2023-07-22T09:15:21;0.50;;;0.50;;
934;SDS011;454;53.254;10.400;2023-07-22T09:17:48;2.07;;;0.53;;
934;SDS011;454;53.254;10.400;2023-07-22T09:20:15;0.80;;;0.80;;
934;SDS011;454;53.254;10.400;2023-07-22T09:22:43;0.37;;;0.37;;
934;SDS011;454;53.254;10.400;2023-07-22T09:25:16;0.57;;;0.57;;
934;SDS011;454;53.254;10.400;2023-07-22T09:27:44;0.90;;;0.90;;
934;SDS011;454;53.254;10.400;2023-07-22T09:30:24;0.87;;;0.60;;
934;SDS011;454;53.254;10.400;2023-07-22T09:32:53;0.40;;;0.40;;
934;SDS011;454;53.254;10.400;2023-07-22T09:35:21;0.40;;;0.40;;
934;SDS011;454;53.254;10.400;2023-07-22T09:37:48;0.40;;;0.40;;
934;SDS011;454;53.254;10.400;2023-07-22T09:40:17;0.40;;;0.40;;
934;SDS011;454;53.254;10.400;2023-07-22T09:42:49;1.03;;;0.70;;
934;SDS011;454;53.254;10.400;2023-07-22T09:45:17;0.40;;;0.40;;
934;SDS011;454;53.254;10.400;2023-07-22T09:47:45;0.50;;;0.50;;
934;SDS011;454;53.254;10.400;2023-07-22T09:50:13;0.20;;;0.20;;
934;SDS011;454;53.254;10.400;2023-07-22T09:52:44;0.50;;;0.30;;
934;SDS011;454;53.254;10.400;2023-07-22T09:55:13;0.60;;;0.60;;
934;SDS011;454;53.254;10.400;2023-07-22T09:57:43;0.60;;;0.60;;
934;SDS011;454;53.254;10.400;2023-07-22T10:00:12;0.87;;;0.87;;
934;SDS011;454;53.254;10.400;2023-07-22T10:02:40;0.60;;;0.60;;
934;SDS011;454;53.254;10.400;2023-07-22T10:05:09;0.50;;;0.50;;
934;SDS011;454;53.254;10.400;2023-07-22T10:07:39;0.90;;;0.67;;
934;SDS011;454;53.254;10.400;2023-07-22T10:10:09;14.50;;;0.70;;
934;SDS011;454;53.254;10.400;2023-07-22T10:12:39;0.33;;;0.33;;
934;SDS011;454;53.254;10.400;2023-07-22T10:15:09;1.30;;;0.47;;
934;SDS011;454;53.254;10.400;2023-07-22T10:17:36;0.47;;;0.47;;
934;SDS011;454;53.254;10.400;2023-07-22T10:20:03;0.50;;;0.50;;
934;SDS011;454;53.254;10.400;2023-07-22T10:22:34;0.70;;;0.40;;
934;SDS011;454;53.254;10.400;2023-07-22T10:25:02;0.30;;;0.30;;
934;SDS011;454;53.254;10.400;2023-07-22T10:27:31;0.73;;;0.73;;
934;SDS011;454;53.254;10.400;2023-07-22T10:29:58;0.80;;;0.80;;
934;SDS011;454;53.254;10.400;2023-07-22T10:32:32;0.40;;;0.40;;
934;SDS011;454;53.254;10.400;2023-07-22T10:34:59;0.47;;;0.47;;
934;SDS011;454;53.254;10.400;2023-07-22T10:37:29;0.40;;;0.40;;
934;SDS011;454;53.254;10.400;2023-07-22T10:39:58;0.93;;;0.50;;
934;SDS011;454;53.254;10.400;2023-07-22T10:42:26;0.40;;;0.40;;
934;SDS011;454;53.254;10.400;2023-07-22T10:44:52;0.77;;;0.77;;
934;SDS011;454;53.254;10.400;2023-07-22T10:47:33;0.97;;;0.97;;
934;SDS011;454;53.254;10.400;2023-07-22T10:50:07;1.07;;;0.97;;
934;SDS011;454;53.254;10.400;2023-07-22T10:52:38;0.67;;;0.67;;
934;SDS011;454;53.254;10.400;2023-07-22T10:55:13;0.40;;;0.40;;
934;SDS011;454;53.254;10.400;2023-07-22T10:57:47;0.70;;;0.70;;
934;SDS011;454;53.254;10.400;2023-07-22T11:00:17;1.00;;;0.87;;
934;SDS011;454;53.254;10.400;2023-07-22T11:02:47;0.60;;;0.60;;
934;SDS011;454;53.254;10.400;2023-07-22T11:05:47;0.80;;;0.80;;
934;SDS011;454;53.254;10.400;2023-07-22T11:08:15;0.60;;;0.60;;
934;SDS011;454;53.254;10.400;2023-07-22T11:10:51;2.50;;;1.30;;
934;SDS011;454;53.254;10.400;2023-07-22T11:13:26;0.97;;;0.97;;
934;SDS011;454;53.254;10.400;2023-07-22T11:15:57;0.90;;;0.90;;
934;SDS011;454;53.254;10.400;2023-07-22T11:18:36;0.80;;;0.80;;
934;SDS011;454;53.254;10.400;2023-07-22T11:21:06;0.77;;;0.77;;
934;SDS011;454;53.254;10.400;2023-07-22T11:23:34;1.07;;;1.07;;
934;SDS011;454;53.254;10.400;2023-07-22T11:26:01;0.83;;;0.83;;
934;SDS011;454;53.254;10.400;2023-07-22T11:28:28;0.87;;;0.87;;
934;SDS011;454;53.254;10.400;2023-07-22T11:30:55;0.97;;;0.97;;
934;SDS011;454;53.254;10.400;2023-07-22T11:33:23;1.20;;;1.20;;
934;SDS011;454;53.254;10.400;2023-07-22T11:35:51;1.07;;;1.07;;
934;SDS011;454;53.254;10.400;2023-07-22T11:38:18;1.13;;;1.03;;
934;SDS011;454;53.254;10.400;2023-07-22T11:40:45;1.70;;;1.10;;
934;SDS011;454;53.254;10.400;2023-07-22T11:43:12;1.20;;;1.20;;
934;SDS011;454;53.254;10.400;2023-07-22T11:45:40;1.43;;;1.37;;
934;SDS011;454;53.254;10.400;2023-07-22T11:48:09;1.47;;;1.47;;
934;SDS011;454;53.254;10.400;2023-07-22T11:50:36;1.60;;;1.60;;
934;SDS011;454;53.254;10.400;2023-07-22T11:53:04;1.73;;;1.73;;
934;SDS011;454;53.254;10.400;2023-07-22T11:55:33;4.63;;;1.30;;
934;SDS011;454;53.254;10.400;2023-07-22T11:58:01;1.07;;;1.07;;
934;SDS011;454;53.254;10.400;2023-07-22T12:00:28;1.57;;;1.57;;
934;SDS011;454;53.254;10.400;2023-07-22T12:02:55;0.97;;;0.97;;
934;SDS011;454;53.254;10.400;2023-07-22T12:05:24;1.00;;;1.00;;
934;SDS011;454;53.254;10.400;2023-07-22T12:07:50;1.73;;;1.63;;
934;SDS011;454;53.254;10.400;2023-07-22T12:10:18;3.77;;;1.23;;
934;SDS011;454;53.254;10.400;2023-07-22T12:12:45;1.60;;;1.60;;
934;SDS011;454;53.254;10.400;2023-07-22T12:15:14;1.20;;;1.20;;
934;SDS011;454;53.254;10.400;2023-07-22T12:17:45;1.03;;;1.03;;
934;SDS011;454;53.254;10.400;2023-07-22T12:20:13;1.50;;;1.40;;
934;SDS011;454;53.254;10.400;2023-07-22T12:22:40;1.73;;;1.73;;
934;SDS011;454;53.254;10.400;2023-07-22T12:25:07;1.37;;;1.37;;
934;SDS011;454;53.254;10.400;2023-07-22T12:27:36;1.70;;;1.60;;
934;SDS011;454;53.254;10.400;2023-07-22T12:30:03;1.17;;;1.17;;
934;SDS011;454;53.254;10.400;2023-07-22T12:32:30;1.20;;;1.20;;
934;SDS011;454;53.254;10.400;2023-07-22T12:34:57;1.17;;;1.17;;
934;SDS011;454;53.254;10.400;2023-07-22T12:37:24;2.30;;;2.00;;
934;SDS011;454;53.254;10.400;2023-07-22T12:39:51;1.70;;;1.67;;
934;SDS011;454;53.254;10.400;2023-07-22T12:42:17;1.63;;;1.53;;
934;SDS011;454;53.254;10.400;2023-07-22T12:44:45;1.93;;;1.83;;
934;SDS011;454;53.254;10.400;2023-07-22T12:47:12;1.40;;;1.30;;
934;SDS011;454;53.254;10.400;2023-07-22T12:49:39;1.57;;;1.53;;
934;SDS011;454;53.254;10.400;2023-07-22T12:52:06;2.20;;;1.57;;
934;SDS011;454;53.254;10.400;2023-07-22T12:54:34;1.60;;;1.60;;
934;SDS011;454;53.254;10.400;2023-07-22T12:57:01;2.40;;;1.57;;
934;SDS011;454;53.254;10.400;2023-07-22T12:59:27;1.23;;;1.17;;
934;SDS011;454;53.254;10.400;2023-07-22T13:01:56;1.20;;;1.20;;
934;SDS011;454;53.254;10.400;2023-07-22T13:04:23;1.30;;;1.30;;
934;SDS011;454;53.254;10.400;2023-07-22T13:06:50;1.27;;;1.27;;
934;SDS011;454;53.254;10.400;2023-07-22T13:09:17;1.20;;;1.20;;
934;SDS011;454;53.254;10.400;2023-07-22T13:11:44;1.47;;;1.47;;
934;SDS011;454;53.254;10.400;2023-07-22T13:14:11;2.07;;;1.87;;
934;SDS011;454;53.254;10.400;2023-07-22T13:16:38;1.83;;;1.50;;
934;SDS011;454;53.254;10.400;2023-07-22T13:19:06;2.47;;;1.20;;
934;SDS011;454;53.254;10.400;2023-07-22T13:21:32;1.20;;;1.20;;
934;SDS011;454;53.254;10.400;2023-07-22T13:23:59;1.07;;;1.07;;
934;SDS011;454;53.254;10.400;2023-07-22T13:26:26;1.40;;;1.40;;
934;SDS011;454;53.254;10.400;2023-07-22T13:28:52;1.10;;;1.10;;
934;SDS011;454;53.254;10.400;2023-07-22T13:31:19;1.10;;;1.10;;
934;SDS011;454;53.254;10.400;2023-07-22T13:33:46;1.33;;;1.33;;
934;SDS011;454;53.254;10.400;2023-07-22T13:36:14;1.30;;;1.30;;
934;SDS011;454;53.254;10.400;2023-07-22T13:38:41;1.43;;;1.33;;
934;SDS011;454;53.254;10.400;2023-07-22T13:41:07;2.27;;;2.17;;
934;SDS011;454;53.254;10.400;2023-07-22T13:43:34;1.07;;;1.07;;
934;SDS011;454;53.254;10.400;2023-07-22T13:46:01;1.60;;;1.50;;
934;SDS011;454;53.254;10.400;2023-07-22T13:48:28;1.40;;;1.40;;
934;SDS011;454;53.254;10.400;2023-07-22T13:50:54;2.20;;;1.57;;
934;SDS011;454;53.254;10.400;2023-07-22T13:53:23;1.03;;;1.03;;
934;SDS011;454;53.254;10.400;2023-07-22T13:55:49;1.30;;;1.13;;
934;SDS011;454;53.254;10.400;2023-07-22T13:58:16;0.83;;;0.83;;
934;SDS011;454;53.254;10.400;2023-07-22T14:00:43;0.90;;;0.90;;
934;SDS011;454;53.254;10.400;2023-07-22T14:03:10;1.93;;;1.87;;
934;SDS011;454;53.254;10.400;2023-07-22T14:05:36;1.20;;;1.10;;
934;SDS011;454;53.254;10.400;2023-07-22T14:08:03;1.30;;;1.30;;
934;SDS011;454;53.254;10.400;2023-07-22T14:10:31;1.10;;;1.10;;
934;SDS011;454;53.254;10.400;2023-07-22T14:12:58;1.43;;;1.43;;
934;SDS011;454;53.254;10.400;2023-07-22T14:15:25;1.37;;;1.33;;
934;SDS011;454;53.254;10.400;2023-07-22T14:17:51;0.80;;;0.80;;
934;SDS011;454;53.254;10.400;2023-07-22T14:20:18;1.43;;;1.33;;
934;SDS011;454;53.254;10.400;2023-07-22T14:22:45;1.37;;;1.37;;
934;SDS011;454;53.254;10.400;2023-07-22T14:25:14;1.50;;;1.43;;
934;SDS011;454;53.254;10.400;2023-07-22T14:27:42;1.23;;;1.23;;
934;SDS011;454;53.254;10.400;2023-07-22T14:30:09;1.50;;;1.40;;
934;SDS011;454;53.254;10.400;2023-07-22T14:32:36;1.20;;;1.17;;
934;SDS011;454;53.254;10.400;2023-07-22T14:35:03;1.20;;;1.20;;
934;SDS011;454;53.254;10.400;2023-07-22T14:37:31;1.43;;;1.40;;
934;SDS011;454;53.254;10.400;2023-07-22T14:39:57;1.57;;;1.57;;
934;SDS011;454;53.254;10.400;2023-07-22T14:42:24;2.50;;;1.47;;
934;SDS011;454;53.254;10.400;2023-07-22T14:44:52;1.23;;;0.87;;
934;SDS011;454;53.254;10.400;2023-07-22T14:47:19;1.17;;;1.13;;
934;SDS011;454;53.254;10.400;2023-07-22T14:49:46;1.10;;;1.10;;
934;SDS011;454;53.254;10.400;2023-07-22T14:52:12;1.83;;;1.73;;
934;SDS011;454;53.254;10.400;2023-07-22T14:54:39;1.20;;;1.20;;
934;SDS011;454;53.254;10.400;2023-07-22T14:57:06;1.93;;;1.90;;
934;SDS011;454;53.254;10.400;2023-07-22T14:59:33;1.23;;;1.23;;
934;SDS011;454;53.254;10.400;2023-07-22T15:02:01;1.37;;;1.33;;
934;SDS011;454;53.254;10.400;2023-07-22T15:04:27;2.23;;;2.13;;
934;SDS011;454;53.254;10.400;2023-07-22T15:06:54;1.60;;;1.60;;
934;SDS011;454;53.254;10.400;2023-07-22T15:09:21;1.47;;;1.43;;
934;SDS011;454;53.254;10.400;2023-07-22T15:11:47;1.33;;;1.33;;
934;SDS011;454;53.254;10.400;2023-07-22T15:14:14;1.30;;;1.30;;
934;SDS011;454;53.254;10.400;2023-07-22T15:16:41;2.00;;;1.90;;
934;SDS011;454;53.254;10.400;2023-07-22T15:19:09;2.10;;;2.00;;
934;SDS011;454;53.254;10.400;2023-07-22T15:21:36;2.67;;;2.57;;
934;SDS011;454;53.254;10.400;2023-07-22T15:24:02;1.70;;;1.60;;
934;SDS011;454;53.254;10.400;2023-07-22T15:26:29;2.73;;;2.00;;
934;SDS011;454;53.254;10.400;2023-07-22T15:28:56;1.70;;;1.60;;
934;SDS011;454;53.254;10.400;2023-07-22T15:31:23;2.77;;;2.57;;